sensor_id;sensor_type;location;lat;lon;timestamp;P1;durP1;ratioP1;P2;durP2;ratioP2
11548;SDS011;61444;59.472;18.306;2024-01-27T00:00:41;4.03;;;1.90;;
11548;SDS011;61444;59.472;18.306;2024-01-27T00:02:51;3.07;;;1.60;;
11548;SDS011;61444;59.472;18.306;2024-01-27T00:05:00;3.00;;;1.67;;
11548;SDS011;61444;59.472;18.306;2024-01-27T00:07:09;2.83;;;1.80;;
11548;SDS011;61444;59.472;18.306;2024-01-27T00:09:17;2.30;;;1.30;;
11548;SDS011;61444;59.472;18.306;2024-01-27T00:11:26;2.33;;;1.53;;
11548;SDS011;61444;59.472;18.306;2024-01-27T00:13:35;2.60;;;1.40;;
11548;SDS011;61444;59.472;18.306;2024-01-27T00:15:44;2.60;;;1.90;;
11548;SDS011;61444;59.472;18.306;2024-01-27T00:17:54;3.63;;;2.10;;
11548;SDS011;61444;59.472;18.306;2024-01-27T00:20:03;5.10;;;2.00;;
11548;SDS011;61444;59.472;18.306;2024-01-27T00:22:12;3.57;;;2.00;;
11548;SDS011;61444;59.472;18.306;2024-01-27T00:24:21;3.10;;;2.33;;
11548;SDS011;61444;59.472;18.306;2024-01-27T00:26:30;5.97;;;1.97;;
11548;SDS011;61444;59.472;18.306;2024-01-27T00:28:38;5.40;;;2.17;;
11548;SDS011;61444;59.472;18.306;2024-01-27T00:30:47;3.47;;;2.20;;
11548;SDS011;61444;59.472;18.306;2024-01-27T00:32:57;6.10;;;2.33;;
11548;SDS011;61444;59.472;18.306;2024-01-27T00:35:06;4.23;;;2.43;;
11548;SDS011;61444;59.472;18.306;2024-01-27T00:37:17;5.83;;;2.40;;
11548;SDS011;61444;59.472;18.306;2024-01-27T00:39:26;6.53;;;2.80;;
11548;SDS011;61444;59.472;18.306;2024-01-27T00:41:35;5.97;;;2.53;;
11548;SDS011;61444;59.472;18.306;2024-01-27T00:43:43;3.70;;;2.20;;
11548;SDS011;61444;59.472;18.306;2024-01-27T00:45:52;5.07;;;2.60;;
11548;SDS011;61444;59.472;18.306;2024-01-27T00:48:04;3.60;;;2.20;;
11548;SDS011;61444;59.472;18.306;2024-01-27T00:50:13;3.33;;;2.43;;
11548;SDS011;61444;59.472;18.306;2024-01-27T00:52:22;4.07;;;2.83;;
11548;SDS011;61444;59.472;18.306;2024-01-27T00:54:31;4.47;;;2.80;;
11548;SDS011;61444;59.472;18.306;2024-01-27T00:56:40;4.73;;;3.00;;
11548;SDS011;61444;59.472;18.306;2024-01-27T00:58:49;6.80;;;2.73;;
11548;SDS011;61444;59.472;18.306;2024-01-27T01:00:57;5.10;;;2.60;;
11548;SDS011;61444;59.472;18.306;2024-01-27T01:03:08;4.17;;;2.77;;
11548;SDS011;61444;59.472;18.306;2024-01-27T01:05:17;4.17;;;2.87;;
11548;SDS011;61444;59.472;18.306;2024-01-27T01:07:27;4.67;;;3.00;;
11548;SDS011;61444;59.472;18.306;2024-01-27T01:09:36;5.43;;;2.77;;
11548;SDS011;61444;59.472;18.306;2024-01-27T01:11:45;5.73;;;3.07;;
11548;SDS011;61444;59.472;18.306;2024-01-27T01:13:56;3.90;;;2.80;;
11548;SDS011;61444;59.472;18.306;2024-01-27T01:16:04;6.73;;;2.90;;
11548;SDS011;61444;59.472;18.306;2024-01-27T01:18:15;5.47;;;3.00;;
11548;SDS011;61444;59.472;18.306;2024-01-27T01:20:23;5.27;;;2.93;;
11548;SDS011;61444;59.472;18.306;2024-01-27T01:22:33;5.07;;;3.30;;
11548;SDS011;61444;59.472;18.306;2024-01-27T01:24:42;5.23;;;3.30;;
11548;SDS011;61444;59.472;18.306;2024-01-27T01:26:50;7.40;;;3.13;;
11548;SDS011;61444;59.472;18.306;2024-01-27T01:28:59;7.80;;;2.90;;
11548;SDS011;61444;59.472;18.306;2024-01-27T01:31:08;5.80;;;3.77;;
11548;SDS011;61444;59.472;18.306;2024-01-27T01:33:18;5.23;;;3.20;;
11548;SDS011;61444;59.472;18.306;2024-01-27T01:35:27;6.10;;;3.43;;
11548;SDS011;61444;59.472;18.306;2024-01-27T01:37:35;7.93;;;3.53;;
11548;SDS011;61444;59.472;18.306;2024-01-27T01:39:44;8.63;;;3.43;;
11548;SDS011;61444;59.472;18.306;2024-01-27T01:41:53;4.73;;;2.83;;
11548;SDS011;61444;59.472;18.306;2024-01-27T01:44:02;8.37;;;3.20;;
11548;SDS011;61444;59.472;18.306;2024-01-27T01:46:10;8.07;;;3.13;;
11548;SDS011;61444;59.472;18.306;2024-01-27T01:48:21;6.60;;;3.10;;
11548;SDS011;61444;59.472;18.306;2024-01-27T01:50:30;8.23;;;3.13;;
11548;SDS011;61444;59.472;18.306;2024-01-27T01:52:39;5.67;;;2.80;;
11548;SDS011;61444;59.472;18.306;2024-01-27T01:54:48;6.23;;;3.10;;
11548;SDS011;61444;59.472;18.306;2024-01-27T01:56:57;5.63;;;2.93;;
11548;SDS011;61444;59.472;18.306;2024-01-27T01:59:08;6.13;;;3.03;;
11548;SDS011;61444;59.472;18.306;2024-01-27T02:01:17;4.20;;;2.97;;
11548;SDS011;61444;59.472;18.306;2024-01-27T02:03:29;7.13;;;3.17;;
11548;SDS011;61444;59.472;18.306;2024-01-27T02:05:38;4.63;;;3.03;;
11548;SDS011;61444;59.472;18.306;2024-01-27T02:07:47;4.43;;;2.70;;
11548;SDS011;61444;59.472;18.306;2024-01-27T02:09:56;4.40;;;2.70;;
11548;SDS011;61444;59.472;18.306;2024-01-27T02:12:06;5.17;;;2.60;;
11548;SDS011;61444;59.472;18.306;2024-01-27T02:14:15;3.53;;;1.90;;
11548;SDS011;61444;59.472;18.306;2024-01-27T02:16:24;3.60;;;2.20;;
11548;SDS011;61444;59.472;18.306;2024-01-27T02:18:37;5.13;;;2.37;;
11548;SDS011;61444;59.472;18.306;2024-01-27T02:20:46;5.80;;;2.33;;
11548;SDS011;61444;59.472;18.306;2024-01-27T02:22:55;3.40;;;2.10;;
11548;SDS011;61444;59.472;18.306;2024-01-27T02:25:06;3.43;;;2.00;;
11548;SDS011;61444;59.472;18.306;2024-01-27T02:27:14;3.67;;;2.30;;
11548;SDS011;61444;59.472;18.306;2024-01-27T02:29:23;3.37;;;2.13;;
11548;SDS011;61444;59.472;18.306;2024-01-27T02:31:34;4.57;;;2.40;;
11548;SDS011;61444;59.472;18.306;2024-01-27T02:33:43;3.50;;;2.20;;
11548;SDS011;61444;59.472;18.306;2024-01-27T02:35:52;4.07;;;2.30;;
11548;SDS011;61444;59.472;18.306;2024-01-27T02:38:00;5.43;;;2.40;;
11548;SDS011;61444;59.472;18.306;2024-01-27T02:40:13;7.47;;;3.20;;
11548;SDS011;61444;59.472;18.306;2024-01-27T02:42:22;5.67;;;2.93;;
11548;SDS011;61444;59.472;18.306;2024-01-27T02:44:31;4.83;;;2.97;;
11548;SDS011;61444;59.472;18.306;2024-01-27T02:46:40;5.57;;;3.20;;
11548;SDS011;61444;59.472;18.306;2024-01-27T02:48:52;5.43;;;3.40;;
11548;SDS011;61444;59.472;18.306;2024-01-27T02:51:03;5.20;;;3.17;;
11548;SDS011;61444;59.472;18.306;2024-01-27T02:53:12;5.50;;;2.97;;
11548;SDS011;61444;59.472;18.306;2024-01-27T02:55:22;5.33;;;3.00;;
11548;SDS011;61444;59.472;18.306;2024-01-27T02:57:30;6.80;;;3.07;;
11548;SDS011;61444;59.472;18.306;2024-01-27T02:59:39;6.07;;;3.20;;
11548;SDS011;61444;59.472;18.306;2024-01-27T03:01:46;6.30;;;3.17;;
11548;SDS011;61444;59.472;18.306;2024-01-27T03:03:55;4.40;;;2.83;;
11548;SDS011;61444;59.472;18.306;2024-01-27T03:06:03;6.20;;;2.37;;
11548;SDS011;61444;59.472;18.306;2024-01-27T03:08:12;3.67;;;2.30;;
11548;SDS011;61444;59.472;18.306;2024-01-27T03:10:22;2.00;;;1.43;;
11548;SDS011;61444;59.472;18.306;2024-01-27T03:12:31;3.20;;;1.90;;
11548;SDS011;61444;59.472;18.306;2024-01-27T03:14:40;3.57;;;1.80;;
11548;SDS011;61444;59.472;18.306;2024-01-27T03:16:49;2.57;;;1.40;;
11548;SDS011;61444;59.472;18.306;2024-01-27T03:18:58;2.73;;;1.10;;
11548;SDS011;61444;59.472;18.306;2024-01-27T03:21:07;2.07;;;1.30;;
11548;SDS011;61444;59.472;18.306;2024-01-27T03:23:16;1.37;;;0.90;;
11548;SDS011;61444;59.472;18.306;2024-01-27T03:25:26;2.50;;;1.17;;
11548;SDS011;61444;59.472;18.306;2024-01-27T03:27:35;1.40;;;1.10;;
11548;SDS011;61444;59.472;18.306;2024-01-27T03:29:44;1.17;;;0.80;;
11548;SDS011;61444;59.472;18.306;2024-01-27T03:31:52;1.63;;;1.10;;
11548;SDS011;61444;59.472;18.306;2024-01-27T03:34:01;1.40;;;1.00;;
11548;SDS011;61444;59.472;18.306;2024-01-27T03:36:11;1.50;;;1.07;;
11548;SDS011;61444;59.472;18.306;2024-01-27T03:38:20;1.87;;;1.17;;
11548;SDS011;61444;59.472;18.306;2024-01-27T03:40:31;1.23;;;0.70;;
11548;SDS011;61444;59.472;18.306;2024-01-27T03:42:39;2.73;;;1.47;;
11548;SDS011;61444;59.472;18.306;2024-01-27T03:44:48;1.67;;;1.43;;
11548;SDS011;61444;59.472;18.306;2024-01-27T03:46:58;2.03;;;1.40;;
11548;SDS011;61444;59.472;18.306;2024-01-27T03:49:07;2.87;;;1.30;;
11548;SDS011;61444;59.472;18.306;2024-01-27T03:51:16;2.57;;;1.57;;
11548;SDS011;61444;59.472;18.306;2024-01-27T03:53:25;1.90;;;1.60;;
11548;SDS011;61444;59.472;18.306;2024-01-27T03:55:35;3.07;;;1.97;;
11548;SDS011;61444;59.472;18.306;2024-01-27T03:57:44;1.63;;;1.43;;
11548;SDS011;61444;59.472;18.306;2024-01-27T03:59:53;2.07;;;1.40;;
11548;SDS011;61444;59.472;18.306;2024-01-27T04:02:02;2.60;;;1.60;;
11548;SDS011;61444;59.472;18.306;2024-01-27T04:04:11;2.07;;;1.57;;
11548;SDS011;61444;59.472;18.306;2024-01-27T04:06:20;2.73;;;1.50;;
11548;SDS011;61444;59.472;18.306;2024-01-27T04:08:29;1.80;;;0.97;;
11548;SDS011;61444;59.472;18.306;2024-01-27T04:10:40;1.10;;;0.97;;
11548;SDS011;61444;59.472;18.306;2024-01-27T04:12:49;2.00;;;1.10;;
11548;SDS011;61444;59.472;18.306;2024-01-27T04:14:57;1.10;;;0.90;;
11548;SDS011;61444;59.472;18.306;2024-01-27T04:17:06;1.47;;;1.10;;
11548;SDS011;61444;59.472;18.306;2024-01-27T04:19:15;1.83;;;1.20;;
11548;SDS011;61444;59.472;18.306;2024-01-27T04:21:26;1.40;;;0.83;;
11548;SDS011;61444;59.472;18.306;2024-01-27T04:23:38;1.57;;;1.07;;
11548;SDS011;61444;59.472;18.306;2024-01-27T04:25:48;1.03;;;0.80;;
11548;SDS011;61444;59.472;18.306;2024-01-27T04:28:01;1.10;;;0.90;;
11548;SDS011;61444;59.472;18.306;2024-01-27T04:30:12;1.27;;;1.00;;
11548;SDS011;61444;59.472;18.306;2024-01-27T04:32:35;1.17;;;0.93;;
11548;SDS011;61444;59.472;18.306;2024-01-27T04:34:47;2.57;;;1.03;;
11548;SDS011;61444;59.472;18.306;2024-01-27T04:36:57;1.10;;;1.00;;
11548;SDS011;61444;59.472;18.306;2024-01-27T04:39:06;1.30;;;1.07;;
11548;SDS011;61444;59.472;18.306;2024-01-27T04:41:16;1.40;;;0.90;;
11548;SDS011;61444;59.472;18.306;2024-01-27T04:43:25;1.20;;;1.00;;
11548;SDS011;61444;59.472;18.306;2024-01-27T04:45:33;1.77;;;1.10;;
11548;SDS011;61444;59.472;18.306;2024-01-27T04:47:42;1.10;;;1.00;;
11548;SDS011;61444;59.472;18.306;2024-01-27T04:49:51;1.77;;;1.30;;
11548;SDS011;61444;59.472;18.306;2024-01-27T04:52:00;1.40;;;0.83;;
11548;SDS011;61444;59.472;18.306;2024-01-27T04:54:08;1.70;;;1.13;;
11548;SDS011;61444;59.472;18.306;2024-01-27T04:56:19;1.27;;;1.03;;
11548;SDS011;61444;59.472;18.306;2024-01-27T04:58:27;1.80;;;1.43;;
11548;SDS011;61444;59.472;18.306;2024-01-27T05:00:36;1.80;;;1.30;;
11548;SDS011;61444;59.472;18.306;2024-01-27T05:02:45;1.87;;;1.40;;
11548;SDS011;61444;59.472;18.306;2024-01-27T05:04:54;1.93;;;1.40;;
11548;SDS011;61444;59.472;18.306;2024-01-27T05:07:03;3.67;;;1.60;;
11548;SDS011;61444;59.472;18.306;2024-01-27T05:09:12;2.50;;;1.57;;
11548;SDS011;61444;59.472;18.306;2024-01-27T05:11:29;1.57;;;1.20;;
11548;SDS011;61444;59.472;18.306;2024-01-27T05:13:39;2.20;;;1.30;;
11548;SDS011;61444;59.472;18.306;2024-01-27T05:15:50;1.50;;;1.30;;
11548;SDS011;61444;59.472;18.306;2024-01-27T05:18:01;2.10;;;1.40;;
11548;SDS011;61444;59.472;18.306;2024-01-27T05:20:11;1.90;;;1.57;;
11548;SDS011;61444;59.472;18.306;2024-01-27T05:22:20;2.10;;;1.33;;
11548;SDS011;61444;59.472;18.306;2024-01-27T05:24:29;2.40;;;1.60;;
11548;SDS011;61444;59.472;18.306;2024-01-27T05:26:40;2.70;;;1.63;;
11548;SDS011;61444;59.472;18.306;2024-01-27T05:28:49;2.00;;;1.50;;
11548;SDS011;61444;59.472;18.306;2024-01-27T05:30:58;3.00;;;1.30;;
11548;SDS011;61444;59.472;18.306;2024-01-27T05:33:07;2.57;;;1.33;;
11548;SDS011;61444;59.472;18.306;2024-01-27T05:35:16;1.57;;;1.20;;
11548;SDS011;61444;59.472;18.306;2024-01-27T05:37:25;2.00;;;1.43;;
11548;SDS011;61444;59.472;18.306;2024-01-27T05:39:33;1.73;;;1.33;;
11548;SDS011;61444;59.472;18.306;2024-01-27T05:41:44;1.50;;;1.03;;
11548;SDS011;61444;59.472;18.306;2024-01-27T05:43:53;2.27;;;1.27;;
11548;SDS011;61444;59.472;18.306;2024-01-27T05:46:03;1.77;;;1.20;;
11548;SDS011;61444;59.472;18.306;2024-01-27T05:48:12;1.70;;;1.40;;
11548;SDS011;61444;59.472;18.306;2024-01-27T05:50:28;2.17;;;1.67;;
11548;SDS011;61444;59.472;18.306;2024-01-27T05:53:36;1.83;;;1.40;;
11548;SDS011;61444;59.472;18.306;2024-01-27T05:55:46;1.60;;;1.20;;
11548;SDS011;61444;59.472;18.306;2024-01-27T05:57:56;1.30;;;1.20;;
11548;SDS011;61444;59.472;18.306;2024-01-27T06:00:06;1.70;;;1.30;;
11548;SDS011;61444;59.472;18.306;2024-01-27T06:02:16;1.33;;;1.23;;
11548;SDS011;61444;59.472;18.306;2024-01-27T06:04:26;1.57;;;1.30;;
11548;SDS011;61444;59.472;18.306;2024-01-27T06:06:37;1.63;;;1.30;;
11548;SDS011;61444;59.472;18.306;2024-01-27T06:08:47;3.20;;;1.40;;
11548;SDS011;61444;59.472;18.306;2024-01-27T06:10:56;1.60;;;1.30;;
11548;SDS011;61444;59.472;18.306;2024-01-27T06:13:07;2.17;;;1.47;;
11548;SDS011;61444;59.472;18.306;2024-01-27T06:15:16;2.03;;;1.30;;
11548;SDS011;61444;59.472;18.306;2024-01-27T06:17:25;1.60;;;1.20;;
11548;SDS011;61444;59.472;18.306;2024-01-27T06:19:34;2.30;;;1.30;;
11548;SDS011;61444;59.472;18.306;2024-01-27T06:21:43;1.53;;;1.17;;
11548;SDS011;61444;59.472;18.306;2024-01-27T06:23:51;1.53;;;0.80;;
11548;SDS011;61444;59.472;18.306;2024-01-27T06:26:03;1.33;;;1.00;;
11548;SDS011;61444;59.472;18.306;2024-01-27T06:28:14;2.30;;;1.03;;
11548;SDS011;61444;59.472;18.306;2024-01-27T06:30:24;1.57;;;0.90;;
11548;SDS011;61444;59.472;18.306;2024-01-27T06:32:33;1.63;;;1.10;;
11548;SDS011;61444;59.472;18.306;2024-01-27T06:34:42;1.83;;;1.30;;
11548;SDS011;61444;59.472;18.306;2024-01-27T06:36:52;1.10;;;0.90;;
11548;SDS011;61444;59.472;18.306;2024-01-27T06:39:01;1.70;;;1.10;;
11548;SDS011;61444;59.472;18.306;2024-01-27T06:41:10;1.13;;;0.97;;
11548;SDS011;61444;59.472;18.306;2024-01-27T06:43:21;1.10;;;0.90;;
11548;SDS011;61444;59.472;18.306;2024-01-27T06:45:30;1.00;;;0.90;;
11548;SDS011;61444;59.472;18.306;2024-01-27T06:47:39;1.20;;;1.00;;
11548;SDS011;61444;59.472;18.306;2024-01-27T06:49:48;1.20;;;1.00;;
11548;SDS011;61444;59.472;18.306;2024-01-27T06:51:59;1.03;;;0.83;;
11548;SDS011;61444;59.472;18.306;2024-01-27T06:54:08;2.57;;;1.60;;
11548;SDS011;61444;59.472;18.306;2024-01-27T06:56:17;2.67;;;1.90;;
11548;SDS011;61444;59.472;18.306;2024-01-27T06:58:28;2.73;;;2.20;;
11548;SDS011;61444;59.472;18.306;2024-01-27T07:00:37;4.30;;;2.27;;
11548;SDS011;61444;59.472;18.306;2024-01-27T07:02:47;3.90;;;2.27;;
11548;SDS011;61444;59.472;18.306;2024-01-27T07:04:57;2.57;;;1.73;;
11548;SDS011;61444;59.472;18.306;2024-01-27T07:07:06;11.23;;;6.10;;
11548;SDS011;61444;59.472;18.306;2024-01-27T07:09:15;6.40;;;4.13;;
11548;SDS011;61444;59.472;18.306;2024-01-27T07:11:25;10.97;;;3.80;;
11548;SDS011;61444;59.472;18.306;2024-01-27T07:13:36;5.73;;;3.27;;
11548;SDS011;61444;59.472;18.306;2024-01-27T07:15:45;5.40;;;2.57;;
11548;SDS011;61444;59.472;18.306;2024-01-27T07:17:54;3.07;;;2.10;;
11548;SDS011;61444;59.472;18.306;2024-01-27T07:20:03;3.23;;;2.10;;
11548;SDS011;61444;59.472;18.306;2024-01-27T07:22:13;4.40;;;2.20;;
11548;SDS011;61444;59.472;18.306;2024-01-27T07:24:22;3.20;;;1.80;;
11548;SDS011;61444;59.472;18.306;2024-01-27T07:26:31;2.20;;;1.90;;
11548;SDS011;61444;59.472;18.306;2024-01-27T07:28:42;2.17;;;1.50;;
11548;SDS011;61444;59.472;18.306;2024-01-27T07:30:52;1.77;;;1.43;;
11548;SDS011;61444;59.472;18.306;2024-01-27T07:33:01;4.13;;;2.00;;
11548;SDS011;61444;59.472;18.306;2024-01-27T07:35:09;1.90;;;1.53;;
11548;SDS011;61444;59.472;18.306;2024-01-27T07:37:19;2.63;;;2.20;;
11548;SDS011;61444;59.472;18.306;2024-01-27T07:39:28;4.27;;;1.90;;
11548;SDS011;61444;59.472;18.306;2024-01-27T07:41:38;2.30;;;1.60;;
11548;SDS011;61444;59.472;18.306;2024-01-27T07:43:48;2.03;;;1.73;;
11548;SDS011;61444;59.472;18.306;2024-01-27T07:45:57;3.37;;;1.30;;
11548;SDS011;61444;59.472;18.306;2024-01-27T07:48:06;1.47;;;1.00;;
11548;SDS011;61444;59.472;18.306;2024-01-27T07:50:16;2.47;;;1.80;;
11548;SDS011;61444;59.472;18.306;2024-01-27T07:52:24;1.20;;;0.90;;
11548;SDS011;61444;59.472;18.306;2024-01-27T07:54:33;1.83;;;1.60;;
11548;SDS011;61444;59.472;18.306;2024-01-27T07:56:45;1.80;;;1.03;;
11548;SDS011;61444;59.472;18.306;2024-01-27T07:58:56;1.47;;;0.90;;
11548;SDS011;61444;59.472;18.306;2024-01-27T08:01:04;2.47;;;1.10;;
11548;SDS011;61444;59.472;18.306;2024-01-27T08:03:13;3.13;;;1.20;;
11548;SDS011;61444;59.472;18.306;2024-01-27T08:05:23;2.77;;;1.00;;
11548;SDS011;61444;59.472;18.306;2024-01-27T08:07:32;1.40;;;1.00;;
11548;SDS011;61444;59.472;18.306;2024-01-27T08:09:41;2.73;;;0.90;;
11548;SDS011;61444;59.472;18.306;2024-01-27T08:11:50;1.20;;;0.93;;
11548;SDS011;61444;59.472;18.306;2024-01-27T08:14:01;1.43;;;1.03;;
11548;SDS011;61444;59.472;18.306;2024-01-27T08:16:10;2.87;;;1.20;;
11548;SDS011;61444;59.472;18.306;2024-01-27T08:18:19;1.53;;;1.03;;
11548;SDS011;61444;59.472;18.306;2024-01-27T08:20:28;2.50;;;0.90;;
11548;SDS011;61444;59.472;18.306;2024-01-27T08:22:37;1.93;;;0.83;;
11548;SDS011;61444;59.472;18.306;2024-01-27T08:24:46;1.20;;;0.60;;
11548;SDS011;61444;59.472;18.306;2024-01-27T08:26:54;4.73;;;0.80;;
11548;SDS011;61444;59.472;18.306;2024-01-27T08:29:05;2.17;;;0.90;;
11548;SDS011;61444;59.472;18.306;2024-01-27T08:31:14;3.57;;;1.37;;
11548;SDS011;61444;59.472;18.306;2024-01-27T08:33:23;2.70;;;0.70;;
11548;SDS011;61444;59.472;18.306;2024-01-27T08:35:32;2.83;;;0.87;;
11548;SDS011;61444;59.472;18.306;2024-01-27T08:37:41;7.87;;;0.90;;
11548;SDS011;61444;59.472;18.306;2024-01-27T08:39:50;3.77;;;1.00;;
11548;SDS011;61444;59.472;18.306;2024-01-27T08:41:59;3.90;;;0.90;;
11548;SDS011;61444;59.472;18.306;2024-01-27T08:44:09;2.10;;;0.63;;
11548;SDS011;61444;59.472;18.306;2024-01-27T08:46:18;7.50;;;1.20;;
11548;SDS011;61444;59.472;18.306;2024-01-27T08:48:28;4.57;;;0.90;;
11548;SDS011;61444;59.472;18.306;2024-01-27T08:50:38;6.80;;;0.80;;
11548;SDS011;61444;59.472;18.306;2024-01-27T08:52:47;2.20;;;0.70;;
11548;SDS011;61444;59.472;18.306;2024-01-27T08:54:56;3.37;;;0.80;;
11548;SDS011;61444;59.472;18.306;2024-01-27T08:57:04;0.83;;;0.63;;
11548;SDS011;61444;59.472;18.306;2024-01-27T08:59:15;2.30;;;0.50;;
11548;SDS011;61444;59.472;18.306;2024-01-27T09:01:24;3.90;;;1.00;;
11548;SDS011;61444;59.472;18.306;2024-01-27T09:03:33;4.20;;;1.20;;
11548;SDS011;61444;59.472;18.306;2024-01-27T09:05:42;2.70;;;1.13;;
11548;SDS011;61444;59.472;18.306;2024-01-27T09:07:52;1.83;;;0.90;;
11548;SDS011;61444;59.472;18.306;2024-01-27T09:10:02;3.77;;;1.30;;
11548;SDS011;61444;59.472;18.306;2024-01-27T09:12:11;2.83;;;0.90;;
11548;SDS011;61444;59.472;18.306;2024-01-27T09:14:22;6.30;;;0.73;;
11548;SDS011;61444;59.472;18.306;2024-01-27T09:16:31;5.50;;;2.63;;
11548;SDS011;61444;59.472;18.306;2024-01-27T09:18:41;4.83;;;1.50;;
11548;SDS011;61444;59.472;18.306;2024-01-27T09:20:59;4.80;;;1.00;;
11548;SDS011;61444;59.472;18.306;2024-01-27T09:23:08;6.37;;;1.40;;
11548;SDS011;61444;59.472;18.306;2024-01-27T09:25:17;4.93;;;0.93;;
11548;SDS011;61444;59.472;18.306;2024-01-27T09:27:27;4.13;;;1.37;;
11548;SDS011;61444;59.472;18.306;2024-01-27T09:29:37;3.70;;;1.03;;
11548;SDS011;61444;59.472;18.306;2024-01-27T09:31:46;3.97;;;1.20;;
11548;SDS011;61444;59.472;18.306;2024-01-27T09:33:55;4.03;;;0.80;;
11548;SDS011;61444;59.472;18.306;2024-01-27T09:36:05;3.93;;;1.20;;
11548;SDS011;61444;59.472;18.306;2024-01-27T09:38:14;5.07;;;1.70;;
11548;SDS011;61444;59.472;18.306;2024-01-27T09:40:24;2.70;;;1.10;;
11548;SDS011;61444;59.472;18.306;2024-01-27T09:42:33;3.77;;;1.00;;
11548;SDS011;61444;59.472;18.306;2024-01-27T09:44:44;6.00;;;1.13;;
11548;SDS011;61444;59.472;18.306;2024-01-27T09:46:56;6.03;;;1.40;;
11548;SDS011;61444;59.472;18.306;2024-01-27T09:49:05;9.23;;;1.27;;
11548;SDS011;61444;59.472;18.306;2024-01-27T09:51:16;5.27;;;1.27;;
11548;SDS011;61444;59.472;18.306;2024-01-27T09:53:25;5.00;;;1.03;;
11548;SDS011;61444;59.472;18.306;2024-01-27T09:55:34;4.13;;;1.17;;
11548;SDS011;61444;59.472;18.306;2024-01-27T09:57:43;4.87;;;1.20;;
11548;SDS011;61444;59.472;18.306;2024-01-27T09:59:54;1.77;;;0.70;;
11548;SDS011;61444;59.472;18.306;2024-01-27T10:02:05;5.00;;;1.20;;
11548;SDS011;61444;59.472;18.306;2024-01-27T10:04:14;4.40;;;1.40;;
11548;SDS011;61444;59.472;18.306;2024-01-27T10:06:24;3.77;;;1.43;;
11548;SDS011;61444;59.472;18.306;2024-01-27T10:08:33;5.27;;;1.43;;
11548;SDS011;61444;59.472;18.306;2024-01-27T10:10:43;2.37;;;1.07;;
11548;SDS011;61444;59.472;18.306;2024-01-27T10:12:52;3.13;;;1.20;;
11548;SDS011;61444;59.472;18.306;2024-01-27T10:15:07;7.17;;;1.20;;
11548;SDS011;61444;59.472;18.306;2024-01-27T10:17:26;6.13;;;1.10;;
11548;SDS011;61444;59.472;18.306;2024-01-27T10:19:39;5.20;;;0.93;;
11548;SDS011;61444;59.472;18.306;2024-01-27T10:21:59;2.70;;;0.90;;
11548;SDS011;61444;59.472;18.306;2024-01-27T10:24:07;4.20;;;0.80;;
11548;SDS011;61444;59.472;18.306;2024-01-27T10:26:16;5.33;;;1.23;;
11548;SDS011;61444;59.472;18.306;2024-01-27T10:28:25;5.47;;;1.63;;
11548;SDS011;61444;59.472;18.306;2024-01-27T10:30:36;5.30;;;1.40;;
11548;SDS011;61444;59.472;18.306;2024-01-27T10:32:54;5.20;;;1.60;;
11548;SDS011;61444;59.472;18.306;2024-01-27T10:35:03;4.60;;;1.70;;
11548;SDS011;61444;59.472;18.306;2024-01-27T10:37:12;3.83;;;1.30;;
11548;SDS011;61444;59.472;18.306;2024-01-27T10:39:27;4.40;;;1.43;;
11548;SDS011;61444;59.472;18.306;2024-01-27T10:41:36;4.20;;;1.50;;
11548;SDS011;61444;59.472;18.306;2024-01-27T10:43:46;6.53;;;2.17;;
11548;SDS011;61444;59.472;18.306;2024-01-27T10:45:59;5.60;;;1.10;;
11548;SDS011;61444;59.472;18.306;2024-01-27T10:48:09;3.03;;;1.10;;
11548;SDS011;61444;59.472;18.306;2024-01-27T10:50:19;2.63;;;0.93;;
11548;SDS011;61444;59.472;18.306;2024-01-27T10:52:29;6.57;;;1.10;;
11548;SDS011;61444;59.472;18.306;2024-01-27T10:54:38;3.27;;;1.30;;
11548;SDS011;61444;59.472;18.306;2024-01-27T10:56:50;4.00;;;0.80;;
11548;SDS011;61444;59.472;18.306;2024-01-27T10:59:00;7.67;;;0.93;;
11548;SDS011;61444;59.472;18.306;2024-01-27T11:01:12;3.90;;;1.20;;
11548;SDS011;61444;59.472;18.306;2024-01-27T11:03:22;2.00;;;0.83;;
11548;SDS011;61444;59.472;18.306;2024-01-27T11:05:32;6.40;;;1.20;;
11548;SDS011;61444;59.472;18.306;2024-01-27T11:07:44;3.30;;;1.27;;
11548;SDS011;61444;59.472;18.306;2024-01-27T11:09:53;2.00;;;0.90;;
11548;SDS011;61444;59.472;18.306;2024-01-27T11:12:03;2.53;;;1.13;;
11548;SDS011;61444;59.472;18.306;2024-01-27T11:14:12;2.13;;;1.00;;
11548;SDS011;61444;59.472;18.306;2024-01-27T11:16:23;7.00;;;2.27;;
11548;SDS011;61444;59.472;18.306;2024-01-27T11:18:33;9.97;;;3.90;;
11548;SDS011;61444;59.472;18.306;2024-01-27T11:20:44;5.97;;;2.60;;
11548;SDS011;61444;59.472;18.306;2024-01-27T11:22:53;7.40;;;3.00;;
11548;SDS011;61444;59.472;18.306;2024-01-27T11:25:06;10.03;;;2.70;;
11548;SDS011;61444;59.472;18.306;2024-01-27T11:27:15;4.63;;;2.40;;
11548;SDS011;61444;59.472;18.306;2024-01-27T11:29:24;8.80;;;2.80;;
11548;SDS011;61444;59.472;18.306;2024-01-27T11:31:39;7.73;;;2.30;;
11548;SDS011;61444;59.472;18.306;2024-01-27T11:33:50;7.73;;;1.80;;
11548;SDS011;61444;59.472;18.306;2024-01-27T11:36:01;4.67;;;1.27;;
11548;SDS011;61444;59.472;18.306;2024-01-27T11:38:11;3.27;;;1.47;;
11548;SDS011;61444;59.472;18.306;2024-01-27T11:40:21;3.00;;;1.10;;
11548;SDS011;61444;59.472;18.306;2024-01-27T11:42:33;2.67;;;1.17;;
11548;SDS011;61444;59.472;18.306;2024-01-27T11:44:42;6.40;;;1.33;;
11548;SDS011;61444;59.472;18.306;2024-01-27T11:46:53;3.70;;;1.37;;
11548;SDS011;61444;59.472;18.306;2024-01-27T11:49:02;6.83;;;1.10;;
11548;SDS011;61444;59.472;18.306;2024-01-27T11:51:13;3.43;;;1.00;;
11548;SDS011;61444;59.472;18.306;2024-01-27T11:53:23;5.17;;;1.27;;
11548;SDS011;61444;59.472;18.306;2024-01-27T11:55:31;4.33;;;1.20;;
11548;SDS011;61444;59.472;18.306;2024-01-27T11:57:41;5.10;;;1.30;;
11548;SDS011;61444;59.472;18.306;2024-01-27T11:59:50;7.07;;;1.10;;
11548;SDS011;61444;59.472;18.306;2024-01-27T12:02:02;5.07;;;1.40;;
11548;SDS011;61444;59.472;18.306;2024-01-27T12:04:11;5.40;;;1.33;;
11548;SDS011;61444;59.472;18.306;2024-01-27T12:06:22;5.70;;;1.07;;
11548;SDS011;61444;59.472;18.306;2024-01-27T12:08:31;4.20;;;1.10;;
11548;SDS011;61444;59.472;18.306;2024-01-27T12:10:43;5.70;;;1.00;;
11548;SDS011;61444;59.472;18.306;2024-01-27T12:12:52;4.27;;;1.07;;
11548;SDS011;61444;59.472;18.306;2024-01-27T12:15:02;3.60;;;1.17;;
11548;SDS011;61444;59.472;18.306;2024-01-27T12:17:13;2.90;;;0.90;;
11548;SDS011;61444;59.472;18.306;2024-01-27T12:19:23;5.30;;;1.20;;
11548;SDS011;61444;59.472;18.306;2024-01-27T12:21:32;4.00;;;1.17;;
11548;SDS011;61444;59.472;18.306;2024-01-27T12:23:51;4.83;;;1.20;;
11548;SDS011;61444;59.472;18.306;2024-01-27T12:26:01;3.97;;;0.87;;
11548;SDS011;61444;59.472;18.306;2024-01-27T12:28:11;5.33;;;1.40;;
11548;SDS011;61444;59.472;18.306;2024-01-27T12:30:20;6.90;;;1.60;;
11548;SDS011;61444;59.472;18.306;2024-01-27T12:32:32;6.07;;;1.13;;
11548;SDS011;61444;59.472;18.306;2024-01-27T12:34:41;4.03;;;1.00;;
11548;SDS011;61444;59.472;18.306;2024-01-27T12:36:52;6.83;;;1.30;;
11548;SDS011;61444;59.472;18.306;2024-01-27T12:39:01;5.87;;;1.00;;
11548;SDS011;61444;59.472;18.306;2024-01-27T12:41:11;7.37;;;1.17;;
11548;SDS011;61444;59.472;18.306;2024-01-27T12:43:20;4.40;;;1.37;;
11548;SDS011;61444;59.472;18.306;2024-01-27T12:45:29;7.23;;;1.70;;
11548;SDS011;61444;59.472;18.306;2024-01-27T12:47:43;5.63;;;1.07;;
11548;SDS011;61444;59.472;18.306;2024-01-27T12:49:52;5.70;;;0.90;;